Terminal Aerodrome Forecast
Issued by NWS

Home | Current Version | Previous Version | Text Only | Print | Product List | Glossary Off
Versions: 1 2 3 4 5 6 7 8 9 10 11 12 13 14 15

000
FTUS43 KIWX 241100
TAFSBN
TAF
KSBN 241120Z 2412/2512 22005KT P6SM BKN025
     FM241900 22007KT P6SM SCT030 BKN250
     FM250900 21005KT 6SM BR OVC025=

USA.gov is the U.S. government's official web portal to all federal, state and local government web resources and services.